sensor_id;sensor_type;location;lat;lon;timestamp;P1;durP1;ratioP1;P2;durP2;ratioP2
9115;SDS011;4593;53.652;10.168;2023-04-12T00:00:22;6.97;;;4.27;;
9115;SDS011;4593;53.652;10.168;2023-04-12T00:02:48;4.87;;;4.10;;
9115;SDS011;4593;53.652;10.168;2023-04-12T00:05:18;4.60;;;4.10;;
9115;SDS011;4593;53.652;10.168;2023-04-12T00:07:49;4.23;;;3.60;;
9115;SDS011;4593;53.652;10.168;2023-04-12T00:10:17;4.27;;;3.83;;
9115;SDS011;4593;53.652;10.168;2023-04-12T00:12:43;5.27;;;3.90;;
9115;SDS011;4593;53.652;10.168;2023-04-12T00:15:10;4.13;;;3.60;;
9115;SDS011;4593;53.652;10.168;2023-04-12T00:17:35;9.07;;;3.97;;
9115;SDS011;4593;53.652;10.168;2023-04-12T00:20:01;5.50;;;4.10;;
9115;SDS011;4593;53.652;10.168;2023-04-12T00:22:30;7.97;;;3.50;;
9115;SDS011;4593;53.652;10.168;2023-04-12T00:24:55;7.03;;;4.20;;
9115;SDS011;4593;53.652;10.168;2023-04-12T00:27:22;6.73;;;3.27;;
9115;SDS011;4593;53.652;10.168;2023-04-12T00:29:47;6.27;;;3.60;;
9115;SDS011;4593;53.652;10.168;2023-04-12T00:32:13;7.77;;;3.67;;
9115;SDS011;4593;53.652;10.168;2023-04-12T00:34:38;5.70;;;3.90;;
9115;SDS011;4593;53.652;10.168;2023-04-12T00:37:04;3.77;;;3.47;;
9115;SDS011;4593;53.652;10.168;2023-04-12T00:39:30;6.43;;;4.10;;
9115;SDS011;4593;53.652;10.168;2023-04-12T00:41:56;3.60;;;3.07;;
9115;SDS011;4593;53.652;10.168;2023-04-12T00:44:22;7.27;;;4.07;;
9115;SDS011;4593;53.652;10.168;2023-04-12T00:46:48;3.23;;;2.90;;
9115;SDS011;4593;53.652;10.168;2023-04-12T00:49:13;4.60;;;4.03;;
9115;SDS011;4593;53.652;10.168;2023-04-12T00:51:39;6.20;;;3.80;;
9115;SDS011;4593;53.652;10.168;2023-04-12T00:54:05;4.40;;;3.53;;
9115;SDS011;4593;53.652;10.168;2023-04-12T00:56:32;7.00;;;3.40;;
9115;SDS011;4593;53.652;10.168;2023-04-12T00:58:58;8.47;;;3.70;;
9115;SDS011;4593;53.652;10.168;2023-04-12T01:01:25;5.03;;;3.27;;
9115;SDS011;4593;53.652;10.168;2023-04-12T01:03:52;8.93;;;3.90;;
9115;SDS011;4593;53.652;10.168;2023-04-12T01:11:31;4.60;;;3.50;;
9115;SDS011;4593;53.652;10.168;2023-04-12T01:16:49;4.67;;;3.53;;
9115;SDS011;4593;53.652;10.168;2023-04-12T01:19:26;4.80;;;3.20;;
9115;SDS011;4593;53.652;10.168;2023-04-12T01:25:44;2.60;;;2.40;;
9115;SDS011;4593;53.652;10.168;2023-04-12T01:28:13;6.07;;;3.20;;
9115;SDS011;4593;53.652;10.168;2023-04-12T01:30:44;3.03;;;2.73;;
9115;SDS011;4593;53.652;10.168;2023-04-12T01:33:11;4.37;;;3.07;;
9115;SDS011;4593;53.652;10.168;2023-04-12T01:35:38;3.07;;;2.77;;
9115;SDS011;4593;53.652;10.168;2023-04-12T01:38:04;12.20;;;3.70;;
9115;SDS011;4593;53.652;10.168;2023-04-12T01:40:30;5.40;;;3.80;;
9115;SDS011;4593;53.652;10.168;2023-04-12T01:43:04;6.33;;;2.97;;
9115;SDS011;4593;53.652;10.168;2023-04-12T01:45:37;4.00;;;2.77;;
9115;SDS011;4593;53.652;10.168;2023-04-12T01:48:04;2.93;;;2.60;;
9115;SDS011;4593;53.652;10.168;2023-04-12T01:50:34;4.60;;;3.13;;
9115;SDS011;4593;53.652;10.168;2023-04-12T01:56:12;3.00;;;2.73;;
9115;SDS011;4593;53.652;10.168;2023-04-12T01:58:41;3.30;;;2.70;;
9115;SDS011;4593;53.652;10.168;2023-04-12T02:01:08;3.37;;;3.00;;
9115;SDS011;4593;53.652;10.168;2023-04-12T02:03:36;3.57;;;2.90;;
9115;SDS011;4593;53.652;10.168;2023-04-12T02:06:06;3.33;;;2.73;;
9115;SDS011;4593;53.652;10.168;2023-04-12T02:08:33;2.70;;;2.50;;
9115;SDS011;4593;53.652;10.168;2023-04-12T02:10:59;2.77;;;2.57;;
9115;SDS011;4593;53.652;10.168;2023-04-12T02:13:25;3.30;;;3.00;;
9115;SDS011;4593;53.652;10.168;2023-04-12T02:15:51;4.13;;;2.77;;
9115;SDS011;4593;53.652;10.168;2023-04-12T02:18:18;4.33;;;3.17;;
9115;SDS011;4593;53.652;10.168;2023-04-12T02:20:44;4.43;;;3.23;;
9115;SDS011;4593;53.652;10.168;2023-04-12T02:23:10;9.50;;;3.03;;
9115;SDS011;4593;53.652;10.168;2023-04-12T02:25:36;3.87;;;2.97;;
9115;SDS011;4593;53.652;10.168;2023-04-12T02:28:05;3.80;;;2.63;;
9115;SDS011;4593;53.652;10.168;2023-04-12T02:30:31;3.53;;;2.97;;
9115;SDS011;4593;53.652;10.168;2023-04-12T02:32:56;3.90;;;2.40;;
9115;SDS011;4593;53.652;10.168;2023-04-12T02:35:22;6.60;;;3.03;;
9115;SDS011;4593;53.652;10.168;2023-04-12T02:37:49;8.70;;;3.07;;
9115;SDS011;4593;53.652;10.168;2023-04-12T02:40:15;2.83;;;2.40;;
9115;SDS011;4593;53.652;10.168;2023-04-12T02:42:41;4.63;;;2.83;;
9115;SDS011;4593;53.652;10.168;2023-04-12T02:45:08;4.70;;;2.83;;
9115;SDS011;4593;53.652;10.168;2023-04-12T02:47:35;2.63;;;2.43;;
9115;SDS011;4593;53.652;10.168;2023-04-12T02:50:02;5.93;;;3.00;;
9115;SDS011;4593;53.652;10.168;2023-04-12T02:52:28;2.73;;;2.40;;
9115;SDS011;4593;53.652;10.168;2023-04-12T02:54:54;12.17;;;2.70;;
9115;SDS011;4593;53.652;10.168;2023-04-12T02:57:21;5.60;;;3.17;;
9115;SDS011;4593;53.652;10.168;2023-04-12T02:59:47;7.93;;;3.10;;
9115;SDS011;4593;53.652;10.168;2023-04-12T03:02:17;5.77;;;2.93;;
9115;SDS011;4593;53.652;10.168;2023-04-12T03:04:46;4.73;;;2.90;;
9115;SDS011;4593;53.652;10.168;2023-04-12T03:07:17;4.27;;;3.20;;
9115;SDS011;4593;53.652;10.168;2023-04-12T03:09:48;3.60;;;3.03;;
9115;SDS011;4593;53.652;10.168;2023-04-12T03:12:14;4.50;;;2.37;;
9115;SDS011;4593;53.652;10.168;2023-04-12T03:14:41;8.07;;;2.63;;
9115;SDS011;4593;53.652;10.168;2023-04-12T03:17:07;6.77;;;3.17;;
9115;SDS011;4593;53.652;10.168;2023-04-12T03:19:33;2.83;;;2.47;;
9115;SDS011;4593;53.652;10.168;2023-04-12T03:21:59;3.17;;;2.83;;
9115;SDS011;4593;53.652;10.168;2023-04-12T03:24:26;8.03;;;3.90;;
9115;SDS011;4593;53.652;10.168;2023-04-12T03:26:52;6.83;;;2.90;;
9115;SDS011;4593;53.652;10.168;2023-04-12T03:29:18;6.23;;;2.40;;
9115;SDS011;4593;53.652;10.168;2023-04-12T03:31:44;7.43;;;2.67;;
9115;SDS011;4593;53.652;10.168;2023-04-12T03:34:10;3.37;;;2.60;;
9115;SDS011;4593;53.652;10.168;2023-04-12T03:36:35;2.60;;;2.40;;
9115;SDS011;4593;53.652;10.168;2023-04-12T03:39:02;5.53;;;3.13;;
9115;SDS011;4593;53.652;10.168;2023-04-12T03:41:28;2.60;;;2.40;;
9115;SDS011;4593;53.652;10.168;2023-04-12T03:43:53;2.20;;;2.10;;
9115;SDS011;4593;53.652;10.168;2023-04-12T03:46:19;4.37;;;3.27;;
9115;SDS011;4593;53.652;10.168;2023-04-12T03:48:45;6.43;;;3.20;;
9115;SDS011;4593;53.652;10.168;2023-04-12T03:51:10;3.03;;;2.63;;
9115;SDS011;4593;53.652;10.168;2023-04-12T03:53:36;7.43;;;2.90;;
9115;SDS011;4593;53.652;10.168;2023-04-12T03:56:03;3.03;;;2.77;;
9115;SDS011;4593;53.652;10.168;2023-04-12T03:58:29;3.17;;;2.87;;
9115;SDS011;4593;53.652;10.168;2023-04-12T04:00:55;3.50;;;2.63;;
9115;SDS011;4593;53.652;10.168;2023-04-12T04:03:21;3.70;;;3.00;;
9115;SDS011;4593;53.652;10.168;2023-04-12T04:05:50;4.63;;;2.77;;
9115;SDS011;4593;53.652;10.168;2023-04-12T04:08:16;3.40;;;2.77;;
9115;SDS011;4593;53.652;10.168;2023-04-12T04:10:42;4.57;;;2.97;;
9115;SDS011;4593;53.652;10.168;2023-04-12T04:13:08;4.27;;;2.87;;
9115;SDS011;4593;53.652;10.168;2023-04-12T04:15:35;5.73;;;2.57;;
9115;SDS011;4593;53.652;10.168;2023-04-12T04:18:00;4.40;;;2.83;;
9115;SDS011;4593;53.652;10.168;2023-04-12T04:20:26;3.87;;;2.80;;
9115;SDS011;4593;53.652;10.168;2023-04-12T04:22:52;2.73;;;2.53;;
9115;SDS011;4593;53.652;10.168;2023-04-12T04:25:18;3.20;;;2.87;;
9115;SDS011;4593;53.652;10.168;2023-04-12T04:27:44;6.73;;;2.67;;
9115;SDS011;4593;53.652;10.168;2023-04-12T04:30:13;2.63;;;2.43;;
9115;SDS011;4593;53.652;10.168;2023-04-12T04:32:41;3.57;;;2.30;;
9115;SDS011;4593;53.652;10.168;2023-04-12T04:35:07;3.20;;;2.90;;
9115;SDS011;4593;53.652;10.168;2023-04-12T04:37:33;2.87;;;2.60;;
9115;SDS011;4593;53.652;10.168;2023-04-12T04:39:59;3.07;;;2.63;;
9115;SDS011;4593;53.652;10.168;2023-04-12T04:42:32;3.17;;;2.63;;
9115;SDS011;4593;53.652;10.168;2023-04-12T04:44:58;2.50;;;2.30;;
9115;SDS011;4593;53.652;10.168;2023-04-12T04:47:28;4.13;;;2.93;;
9115;SDS011;4593;53.652;10.168;2023-04-12T04:49:58;2.90;;;2.60;;
9115;SDS011;4593;53.652;10.168;2023-04-12T04:52:24;3.20;;;2.83;;
9115;SDS011;4593;53.652;10.168;2023-04-12T04:54:50;2.70;;;2.50;;
9115;SDS011;4593;53.652;10.168;2023-04-12T04:57:16;3.37;;;2.67;;
9115;SDS011;4593;53.652;10.168;2023-04-12T04:59:41;4.13;;;2.40;;
9115;SDS011;4593;53.652;10.168;2023-04-12T05:02:09;3.60;;;3.20;;
9115;SDS011;4593;53.652;10.168;2023-04-12T05:04:35;3.47;;;2.93;;
9115;SDS011;4593;53.652;10.168;2023-04-12T05:07:01;3.03;;;2.83;;
9115;SDS011;4593;53.652;10.168;2023-04-12T05:09:27;2.47;;;2.30;;
9115;SDS011;4593;53.652;10.168;2023-04-12T05:11:53;3.47;;;3.17;;
9115;SDS011;4593;53.652;10.168;2023-04-12T05:14:18;2.97;;;2.67;;
9115;SDS011;4593;53.652;10.168;2023-04-12T05:16:44;10.30;;;2.87;;
9115;SDS011;4593;53.652;10.168;2023-04-12T05:19:10;4.03;;;2.70;;
9115;SDS011;4593;53.652;10.168;2023-04-12T05:21:36;4.93;;;3.10;;
9115;SDS011;4593;53.652;10.168;2023-04-12T05:24:01;3.00;;;2.57;;
9115;SDS011;4593;53.652;10.168;2023-04-12T05:26:27;3.00;;;2.70;;
9115;SDS011;4593;53.652;10.168;2023-04-12T05:28:53;7.00;;;3.40;;
9115;SDS011;4593;53.652;10.168;2023-04-12T05:31:19;6.70;;;2.57;;
9115;SDS011;4593;53.652;10.168;2023-04-12T05:33:44;3.20;;;2.73;;
9115;SDS011;4593;53.652;10.168;2023-04-12T05:36:10;3.73;;;2.33;;
9115;SDS011;4593;53.652;10.168;2023-04-12T05:38:36;4.50;;;3.17;;
9115;SDS011;4593;53.652;10.168;2023-04-12T05:41:01;3.00;;;2.70;;
9115;SDS011;4593;53.652;10.168;2023-04-12T05:43:28;4.47;;;2.60;;
9115;SDS011;4593;53.652;10.168;2023-04-12T05:45:54;3.17;;;2.87;;
9115;SDS011;4593;53.652;10.168;2023-04-12T05:48:20;3.60;;;2.67;;
9115;SDS011;4593;53.652;10.168;2023-04-12T05:50:49;4.93;;;2.87;;
9115;SDS011;4593;53.652;10.168;2023-04-12T05:53:18;4.80;;;3.10;;
9115;SDS011;4593;53.652;10.168;2023-04-12T05:55:43;8.07;;;2.73;;
9115;SDS011;4593;53.652;10.168;2023-04-12T05:58:10;7.47;;;3.13;;
9115;SDS011;4593;53.652;10.168;2023-04-12T06:00:35;4.87;;;3.50;;
9115;SDS011;4593;53.652;10.168;2023-04-12T06:03:03;2.57;;;2.37;;
9115;SDS011;4593;53.652;10.168;2023-04-12T06:05:28;2.93;;;2.60;;
9115;SDS011;4593;53.652;10.168;2023-04-12T06:07:54;5.70;;;3.00;;
9115;SDS011;4593;53.652;10.168;2023-04-12T06:10:20;3.13;;;2.83;;
9115;SDS011;4593;53.652;10.168;2023-04-12T06:12:45;2.80;;;2.50;;
9115;SDS011;4593;53.652;10.168;2023-04-12T06:15:11;4.87;;;2.83;;
9115;SDS011;4593;53.652;10.168;2023-04-12T06:17:37;2.87;;;2.67;;
9115;SDS011;4593;53.652;10.168;2023-04-12T06:20:03;3.00;;;2.70;;
9115;SDS011;4593;53.652;10.168;2023-04-12T06:22:33;3.73;;;2.53;;
9115;SDS011;4593;53.652;10.168;2023-04-12T06:24:59;2.83;;;2.53;;
9115;SDS011;4593;53.652;10.168;2023-04-12T06:27:25;8.00;;;3.10;;
9115;SDS011;4593;53.652;10.168;2023-04-12T06:29:51;2.80;;;2.60;;
9115;SDS011;4593;53.652;10.168;2023-04-12T06:32:17;5.83;;;3.00;;
9115;SDS011;4593;53.652;10.168;2023-04-12T06:34:43;3.37;;;2.97;;
9115;SDS011;4593;53.652;10.168;2023-04-12T06:37:09;3.60;;;2.40;;
9115;SDS011;4593;53.652;10.168;2023-04-12T06:39:34;3.43;;;2.90;;
9115;SDS011;4593;53.652;10.168;2023-04-12T06:42:01;6.33;;;2.47;;
9115;SDS011;4593;53.652;10.168;2023-04-12T06:44:27;2.90;;;2.70;;
9115;SDS011;4593;53.652;10.168;2023-04-12T06:46:52;2.63;;;2.43;;
9115;SDS011;4593;53.652;10.168;2023-04-12T06:49:18;6.13;;;2.63;;
9115;SDS011;4593;53.652;10.168;2023-04-12T06:51:44;2.50;;;2.10;;
9115;SDS011;4593;53.652;10.168;2023-04-12T06:54:10;4.43;;;2.23;;
9115;SDS011;4593;53.652;10.168;2023-04-12T06:56:36;3.00;;;2.33;;
9115;SDS011;4593;53.652;10.168;2023-04-12T06:59:02;4.23;;;2.50;;
9115;SDS011;4593;53.652;10.168;2023-04-12T07:01:28;3.10;;;2.47;;
9115;SDS011;4593;53.652;10.168;2023-04-12T07:03:53;14.60;;;2.70;;
9115;SDS011;4593;53.652;10.168;2023-04-12T07:06:19;2.50;;;2.30;;
9115;SDS011;4593;53.652;10.168;2023-04-12T07:08:45;2.77;;;2.40;;
9115;SDS011;4593;53.652;10.168;2023-04-12T07:11:11;4.63;;;2.40;;
9115;SDS011;4593;53.652;10.168;2023-04-12T07:13:36;2.50;;;2.30;;
9115;SDS011;4593;53.652;10.168;2023-04-12T07:16:02;4.07;;;2.70;;
9115;SDS011;4593;53.652;10.168;2023-04-12T07:18:28;3.53;;;2.30;;
9115;SDS011;4593;53.652;10.168;2023-04-12T07:20:54;3.60;;;2.30;;
9115;SDS011;4593;53.652;10.168;2023-04-12T07:23:22;3.63;;;2.50;;
9115;SDS011;4593;53.652;10.168;2023-04-12T07:25:49;4.27;;;2.40;;
9115;SDS011;4593;53.652;10.168;2023-04-12T07:28:16;2.10;;;2.00;;
9115;SDS011;4593;53.652;10.168;2023-04-12T07:30:42;3.60;;;2.60;;
9115;SDS011;4593;53.652;10.168;2023-04-12T07:33:08;6.47;;;2.50;;
9115;SDS011;4593;53.652;10.168;2023-04-12T07:35:33;2.73;;;2.20;;
9115;SDS011;4593;53.652;10.168;2023-04-12T07:37:59;3.43;;;2.33;;
9115;SDS011;4593;53.652;10.168;2023-04-12T07:40:25;3.00;;;2.23;;
9115;SDS011;4593;53.652;10.168;2023-04-12T07:42:51;2.30;;;2.10;;
9115;SDS011;4593;53.652;10.168;2023-04-12T07:45:17;2.43;;;2.23;;
9115;SDS011;4593;53.652;10.168;2023-04-12T07:47:44;4.37;;;2.50;;
9115;SDS011;4593;53.652;10.168;2023-04-12T07:50:09;2.53;;;2.30;;
9115;SDS011;4593;53.652;10.168;2023-04-12T07:52:35;3.10;;;2.23;;
9115;SDS011;4593;53.652;10.168;2023-04-12T07:55:01;2.90;;;2.33;;
9115;SDS011;4593;53.652;10.168;2023-04-12T07:57:27;3.70;;;2.70;;
9115;SDS011;4593;53.652;10.168;2023-04-12T07:59:52;3.37;;;2.27;;
9115;SDS011;4593;53.652;10.168;2023-04-12T08:02:18;2.57;;;2.20;;
9115;SDS011;4593;53.652;10.168;2023-04-12T08:04:54;2.80;;;2.27;;
9115;SDS011;4593;53.652;10.168;2023-04-12T08:07:20;2.30;;;2.13;;
9115;SDS011;4593;53.652;10.168;2023-04-12T08:09:46;3.83;;;2.00;;
9115;SDS011;4593;53.652;10.168;2023-04-12T08:12:13;4.27;;;2.70;;
9115;SDS011;4593;53.652;10.168;2023-04-12T08:14:39;2.47;;;2.27;;
9115;SDS011;4593;53.652;10.168;2023-04-12T08:17:05;2.37;;;2.17;;
9115;SDS011;4593;53.652;10.168;2023-04-12T08:19:31;3.13;;;2.43;;
9115;SDS011;4593;53.652;10.168;2023-04-12T08:21:56;2.40;;;2.20;;
9115;SDS011;4593;53.652;10.168;2023-04-12T08:24:22;2.57;;;2.37;;
9115;SDS011;4593;53.652;10.168;2023-04-12T08:26:49;5.63;;;2.53;;
9115;SDS011;4593;53.652;10.168;2023-04-12T08:29:15;7.27;;;2.53;;
9115;SDS011;4593;53.652;10.168;2023-04-12T08:31:41;3.13;;;2.40;;
9115;SDS011;4593;53.652;10.168;2023-04-12T08:34:06;2.53;;;2.33;;
9115;SDS011;4593;53.652;10.168;2023-04-12T08:36:32;2.80;;;2.33;;
9115;SDS011;4593;53.652;10.168;2023-04-12T08:38:58;2.33;;;2.13;;
9115;SDS011;4593;53.652;10.168;2023-04-12T08:41:24;2.87;;;2.10;;
9115;SDS011;4593;53.652;10.168;2023-04-12T08:43:51;2.23;;;2.03;;
9115;SDS011;4593;53.652;10.168;2023-04-12T08:46:17;5.87;;;2.30;;
9115;SDS011;4593;53.652;10.168;2023-04-12T08:48:43;3.20;;;2.00;;
9115;SDS011;4593;53.652;10.168;2023-04-12T08:51:14;2.00;;;1.90;;
9115;SDS011;4593;53.652;10.168;2023-04-12T08:53:41;3.67;;;2.40;;
9115;SDS011;4593;53.652;10.168;2023-04-12T08:56:08;2.43;;;2.20;;
9115;SDS011;4593;53.652;10.168;2023-04-12T08:58:36;3.70;;;2.00;;
9115;SDS011;4593;53.652;10.168;2023-04-12T09:01:06;2.43;;;2.23;;
9115;SDS011;4593;53.652;10.168;2023-04-12T09:03:35;2.27;;;2.00;;
9115;SDS011;4593;53.652;10.168;2023-04-12T09:06:03;2.33;;;2.13;;
9115;SDS011;4593;53.652;10.168;2023-04-12T09:08:29;2.17;;;2.00;;
9115;SDS011;4593;53.652;10.168;2023-04-12T09:10:55;6.03;;;2.40;;
9115;SDS011;4593;53.652;10.168;2023-04-12T09:13:34;2.80;;;2.60;;
9115;SDS011;4593;53.652;10.168;2023-04-12T09:16:01;3.00;;;2.20;;
9115;SDS011;4593;53.652;10.168;2023-04-12T09:18:27;2.87;;;2.50;;
9115;SDS011;4593;53.652;10.168;2023-04-12T09:21:05;2.63;;;2.20;;
9115;SDS011;4593;53.652;10.168;2023-04-12T09:23:32;4.73;;;2.43;;
9115;SDS011;4593;53.652;10.168;2023-04-12T09:26:00;2.47;;;2.27;;
9115;SDS011;4593;53.652;10.168;2023-04-12T09:28:27;2.73;;;2.30;;
9115;SDS011;4593;53.652;10.168;2023-04-12T09:30:54;2.70;;;2.50;;
9115;SDS011;4593;53.652;10.168;2023-04-12T09:33:22;3.90;;;2.17;;
9115;SDS011;4593;53.652;10.168;2023-04-12T09:36:01;2.73;;;2.47;;
9115;SDS011;4593;53.652;10.168;2023-04-12T09:38:29;3.17;;;2.20;;
9115;SDS011;4593;53.652;10.168;2023-04-12T09:40:55;2.03;;;1.90;;
9115;SDS011;4593;53.652;10.168;2023-04-12T09:43:37;4.47;;;2.20;;
9115;SDS011;4593;53.652;10.168;2023-04-12T09:46:12;2.30;;;2.07;;
9115;SDS011;4593;53.652;10.168;2023-04-12T09:48:39;5.87;;;2.00;;
9115;SDS011;4593;53.652;10.168;2023-04-12T09:51:05;3.00;;;2.10;;
9115;SDS011;4593;53.652;10.168;2023-04-12T09:53:32;5.50;;;2.30;;
9115;SDS011;4593;53.652;10.168;2023-04-12T09:56:00;2.37;;;2.17;;
9115;SDS011;4593;53.652;10.168;2023-04-12T09:58:27;2.27;;;2.07;;
9115;SDS011;4593;53.652;10.168;2023-04-12T10:01:00;2.40;;;2.20;;
9115;SDS011;4593;53.652;10.168;2023-04-12T10:03:27;5.10;;;2.30;;
9115;SDS011;4593;53.652;10.168;2023-04-12T10:05:53;3.87;;;2.30;;
9115;SDS011;4593;53.652;10.168;2023-04-12T10:08:21;2.80;;;2.00;;
9115;SDS011;4593;53.652;10.168;2023-04-12T10:10:47;4.33;;;2.20;;
9115;SDS011;4593;53.652;10.168;2023-04-12T10:13:13;2.13;;;1.67;;
9115;SDS011;4593;53.652;10.168;2023-04-12T10:15:40;2.20;;;2.00;;
9115;SDS011;4593;53.652;10.168;2023-04-12T10:18:06;3.87;;;2.40;;
9115;SDS011;4593;53.652;10.168;2023-04-12T10:20:34;2.13;;;1.93;;
9115;SDS011;4593;53.652;10.168;2023-04-12T10:23:01;4.27;;;2.07;;
9115;SDS011;4593;53.652;10.168;2023-04-12T10:25:27;4.27;;;2.00;;
9115;SDS011;4593;53.652;10.168;2023-04-12T10:27:55;2.67;;;2.27;;
9115;SDS011;4593;53.652;10.168;2023-04-12T10:35:26;3.57;;;1.97;;
9115;SDS011;4593;53.652;10.168;2023-04-12T10:38:02;2.63;;;1.97;;
9115;SDS011;4593;53.652;10.168;2023-04-12T10:40:28;2.97;;;2.00;;
9115;SDS011;4593;53.652;10.168;2023-04-12T10:45:43;5.37;;;2.00;;
9115;SDS011;4593;53.652;10.168;2023-04-12T10:51:13;2.83;;;1.97;;
9115;SDS011;4593;53.652;10.168;2023-04-12T10:53:51;2.33;;;1.93;;
9115;SDS011;4593;53.652;10.168;2023-04-12T10:58:56;6.33;;;2.43;;
9115;SDS011;4593;53.652;10.168;2023-04-12T11:01:26;3.33;;;2.83;;
9115;SDS011;4593;53.652;10.168;2023-04-12T11:04:05;2.23;;;1.93;;
9115;SDS011;4593;53.652;10.168;2023-04-12T11:06:41;3.80;;;2.20;;
9115;SDS011;4593;53.652;10.168;2023-04-12T11:09:15;2.53;;;2.33;;
9115;SDS011;4593;53.652;10.168;2023-04-12T11:11:46;5.30;;;2.30;;
9115;SDS011;4593;53.652;10.168;2023-04-12T11:14:14;3.93;;;2.30;;
9115;SDS011;4593;53.652;10.168;2023-04-12T11:19:31;3.63;;;2.10;;
9115;SDS011;4593;53.652;10.168;2023-04-12T11:22:01;2.97;;;2.10;;
9115;SDS011;4593;53.652;10.168;2023-04-12T11:24:28;2.40;;;2.20;;
9115;SDS011;4593;53.652;10.168;2023-04-12T11:26:55;4.13;;;2.37;;
9115;SDS011;4593;53.652;10.168;2023-04-12T11:29:24;3.77;;;2.50;;
9115;SDS011;4593;53.652;10.168;2023-04-12T11:31:53;6.67;;;2.90;;
9115;SDS011;4593;53.652;10.168;2023-04-12T11:34:21;3.87;;;2.40;;
9115;SDS011;4593;53.652;10.168;2023-04-12T11:36:48;4.73;;;2.40;;
9115;SDS011;4593;53.652;10.168;2023-04-12T11:39:17;9.97;;;3.13;;
9115;SDS011;4593;53.652;10.168;2023-04-12T11:41:43;3.00;;;2.70;;
9115;SDS011;4593;53.652;10.168;2023-04-12T11:44:11;4.07;;;3.17;;
9115;SDS011;4593;53.652;10.168;2023-04-12T11:46:37;6.13;;;3.00;;
9115;SDS011;4593;53.652;10.168;2023-04-12T11:49:03;3.40;;;2.70;;
9115;SDS011;4593;53.652;10.168;2023-04-12T11:51:29;4.27;;;3.17;;
9115;SDS011;4593;53.652;10.168;2023-04-12T11:53:56;4.07;;;2.97;;
9115;SDS011;4593;53.652;10.168;2023-04-12T11:56:23;6.47;;;2.67;;
9115;SDS011;4593;53.652;10.168;2023-04-12T11:58:49;4.83;;;2.90;;
9115;SDS011;4593;53.652;10.168;2023-04-12T12:01:15;8.37;;;3.97;;
9115;SDS011;4593;53.652;10.168;2023-04-12T12:03:43;4.93;;;2.90;;
9115;SDS011;4593;53.652;10.168;2023-04-12T12:06:09;5.43;;;3.23;;
9115;SDS011;4593;53.652;10.168;2023-04-12T12:08:35;6.13;;;3.40;;
9115;SDS011;4593;53.652;10.168;2023-04-12T12:11:02;5.07;;;3.07;;
9115;SDS011;4593;53.652;10.168;2023-04-12T12:16:13;7.10;;;3.43;;
9115;SDS011;4593;53.652;10.168;2023-04-12T12:18:39;3.20;;;2.90;;
9115;SDS011;4593;53.652;10.168;2023-04-12T12:21:09;5.50;;;3.33;;
9115;SDS011;4593;53.652;10.168;2023-04-12T12:23:37;3.93;;;2.87;;
9115;SDS011;4593;53.652;10.168;2023-04-12T12:26:03;4.63;;;3.57;;
9115;SDS011;4593;53.652;10.168;2023-04-12T12:28:34;5.10;;;3.60;;
9115;SDS011;4593;53.652;10.168;2023-04-12T12:31:10;6.33;;;3.53;;
9115;SDS011;4593;53.652;10.168;2023-04-12T12:33:37;4.33;;;3.27;;
9115;SDS011;4593;53.652;10.168;2023-04-12T12:36:04;10.33;;;4.13;;
9115;SDS011;4593;53.652;10.168;2023-04-12T12:38:34;4.67;;;3.27;;
9115;SDS011;4593;53.652;10.168;2023-04-12T12:43:49;4.73;;;3.67;;
9115;SDS011;4593;53.652;10.168;2023-04-12T12:46:16;3.47;;;3.17;;
9115;SDS011;4593;53.652;10.168;2023-04-12T12:48:43;4.20;;;3.77;;
9115;SDS011;4593;53.652;10.168;2023-04-12T12:51:10;4.17;;;3.23;;
9115;SDS011;4593;53.652;10.168;2023-04-12T12:53:38;4.47;;;3.13;;
9115;SDS011;4593;53.652;10.168;2023-04-12T12:56:04;5.67;;;3.43;;
9115;SDS011;4593;53.652;10.168;2023-04-12T12:58:31;6.97;;;3.30;;
9115;SDS011;4593;53.652;10.168;2023-04-12T13:00:58;3.50;;;3.20;;
9115;SDS011;4593;53.652;10.168;2023-04-12T13:03:24;4.73;;;3.40;;
9115;SDS011;4593;53.652;10.168;2023-04-12T13:05:49;5.30;;;3.23;;
9115;SDS011;4593;53.652;10.168;2023-04-12T13:08:16;6.43;;;3.03;;
9115;SDS011;4593;53.652;10.168;2023-04-12T13:10:42;7.47;;;3.27;;
9115;SDS011;4593;53.652;10.168;2023-04-12T13:13:07;6.73;;;3.50;;
9115;SDS011;4593;53.652;10.168;2023-04-12T13:15:34;4.50;;;2.97;;
9115;SDS011;4593;53.652;10.168;2023-04-12T13:18:00;6.23;;;2.83;;
9115;SDS011;4593;53.652;10.168;2023-04-12T13:20:26;3.33;;;2.73;;
9115;SDS011;4593;53.652;10.168;2023-04-12T13:22:52;3.33;;;2.63;;
9115;SDS011;4593;53.652;10.168;2023-04-12T13:25:18;4.60;;;2.87;;
9115;SDS011;4593;53.652;10.168;2023-04-12T13:27:48;3.30;;;2.50;;
9115;SDS011;4593;53.652;10.168;2023-04-12T13:30:15;2.80;;;2.60;;
9115;SDS011;4593;53.652;10.168;2023-04-12T13:32:41;3.40;;;2.50;;
9115;SDS011;4593;53.652;10.168;2023-04-12T13:35:08;3.73;;;2.17;;
9115;SDS011;4593;53.652;10.168;2023-04-12T13:37:34;2.37;;;2.17;;
9115;SDS011;4593;53.652;10.168;2023-04-12T13:40:00;3.20;;;2.40;;
9115;SDS011;4593;53.652;10.168;2023-04-12T13:42:27;2.27;;;2.07;;
9115;SDS011;4593;53.652;10.168;2023-04-12T13:44:52;2.60;;;2.37;;
9115;SDS011;4593;53.652;10.168;2023-04-12T13:47:18;6.90;;;2.53;;
9115;SDS011;4593;53.652;10.168;2023-04-12T13:49:44;2.43;;;2.20;;
9115;SDS011;4593;53.652;10.168;2023-04-12T13:52:10;5.50;;;2.57;;
9115;SDS011;4593;53.652;10.168;2023-04-12T13:54:36;3.27;;;2.20;;
9115;SDS011;4593;53.652;10.168;2023-04-12T13:57:02;2.90;;;1.80;;
9115;SDS011;4593;53.652;10.168;2023-04-12T13:59:28;5.50;;;2.23;;
9115;SDS011;4593;53.652;10.168;2023-04-12T14:01:54;4.33;;;2.47;;
9115;SDS011;4593;53.652;10.168;2023-04-12T14:04:20;2.70;;;2.50;;
9115;SDS011;4593;53.652;10.168;2023-04-12T14:06:46;2.50;;;2.30;;
9115;SDS011;4593;53.652;10.168;2023-04-12T14:09:23;2.40;;;2.20;;
9115;SDS011;4593;53.652;10.168;2023-04-12T14:11:52;2.70;;;2.50;;
9115;SDS011;4593;53.652;10.168;2023-04-12T14:14:22;2.97;;;2.47;;
9115;SDS011;4593;53.652;10.168;2023-04-12T14:16:52;2.47;;;2.27;;
9115;SDS011;4593;53.652;10.168;2023-04-12T14:19:21;7.50;;;2.90;;
9115;SDS011;4593;53.652;10.168;2023-04-12T14:21:47;4.27;;;2.23;;
9115;SDS011;4593;53.652;10.168;2023-04-12T14:24:17;3.07;;;2.43;;
9115;SDS011;4593;53.652;10.168;2023-04-12T14:26:43;2.13;;;2.00;;
9115;SDS011;4593;53.652;10.168;2023-04-12T14:29:09;2.27;;;2.07;;
9115;SDS011;4593;53.652;10.168;2023-04-12T14:31:35;4.37;;;2.60;;
9115;SDS011;4593;53.652;10.168;2023-04-12T14:34:02;2.37;;;2.13;;
9115;SDS011;4593;53.652;10.168;2023-04-12T14:36:28;2.43;;;2.10;;
9115;SDS011;4593;53.652;10.168;2023-04-12T14:38:55;4.97;;;2.50;;
9115;SDS011;4593;53.652;10.168;2023-04-12T14:41:20;3.30;;;2.57;;
9115;SDS011;4593;53.652;10.168;2023-04-12T14:43:46;3.80;;;2.37;;
9115;SDS011;4593;53.652;10.168;2023-04-12T14:46:12;5.80;;;2.77;;
9115;SDS011;4593;53.652;10.168;2023-04-12T14:48:38;2.30;;;2.10;;
9115;SDS011;4593;53.652;10.168;2023-04-12T14:51:05;3.57;;;2.50;;
9115;SDS011;4593;53.652;10.168;2023-04-12T14:53:30;2.53;;;2.30;;
9115;SDS011;4593;53.652;10.168;2023-04-12T14:55:56;3.17;;;2.40;;
9115;SDS011;4593;53.652;10.168;2023-04-12T14:58:22;2.87;;;2.57;;
9115;SDS011;4593;53.652;10.168;2023-04-12T15:00:47;4.63;;;2.50;;
9115;SDS011;4593;53.652;10.168;2023-04-12T15:03:13;2.50;;;2.30;;
9115;SDS011;4593;53.652;10.168;2023-04-12T15:05:40;6.60;;;2.83;;
9115;SDS011;4593;53.652;10.168;2023-04-12T15:08:06;2.60;;;2.40;;
9115;SDS011;4593;53.652;10.168;2023-04-12T15:10:31;2.60;;;2.40;;
9115;SDS011;4593;53.652;10.168;2023-04-12T15:12:58;3.47;;;2.57;;
9115;SDS011;4593;53.652;10.168;2023-04-12T15:15:23;9.27;;;2.47;;
9115;SDS011;4593;53.652;10.168;2023-04-12T15:17:49;2.27;;;2.10;;
9115;SDS011;4593;53.652;10.168;2023-04-12T15:20:15;2.57;;;2.37;;
9115;SDS011;4593;53.652;10.168;2023-04-12T15:22:41;2.93;;;2.30;;
9115;SDS011;4593;53.652;10.168;2023-04-12T15:25:07;2.67;;;2.40;;
9115;SDS011;4593;53.652;10.168;2023-04-12T15:27:34;3.37;;;2.60;;
9115;SDS011;4593;53.652;10.168;2023-04-12T15:30:01;2.57;;;2.37;;
9115;SDS011;4593;53.652;10.168;2023-04-12T15:32:29;2.43;;;2.23;;
9115;SDS011;4593;53.652;10.168;2023-04-12T15:35:01;4.13;;;2.67;;